Terminal Aerodrome Forecast
Issued by NWS

Home | Current Version | Previous Version | Text Only | Print | Product List | Glossary On
Versions: 1 2 3 4 5 6 7 8 9 10 11 12
000
FTUS45 KFGZ 201100
TAFPRC
TAF
KPRC 201138Z 2012/2112 VRB05KT P6SM SCT090
     FM201600 VRB05KT P6SM SCT060 BKN090
     FM201900 VRB08KT P6SM VCTS BKN060CB OVC090
      TEMPO 2019/2023 3SM TSRA OVC040CB
     FM210300 20008KT P6SM VCSH SCT060 BKN150=

USA.gov is the U.S. government's official web portal to all federal, state and local government web resources and services.